sensor_id;sensor_type;location;lat;lon;timestamp;P1;durP1;ratioP1;P2;durP2;ratioP2
24451;SDS011;13350;50.984;5.822;2022-12-16T00:02:15;26.50;;;14.57;;
24451;SDS011;13350;50.984;5.822;2022-12-16T00:04:42;26.42;;;15.25;;
24451;SDS011;13350;50.984;5.822;2022-12-16T00:07:09;25.25;;;16.30;;
24451;SDS011;13350;50.984;5.822;2022-12-16T00:09:36;29.05;;;15.57;;
24451;SDS011;13350;50.984;5.822;2022-12-16T00:12:05;23.50;;;14.32;;
24451;SDS011;13350;50.984;5.822;2022-12-16T00:14:32;23.52;;;14.07;;
24451;SDS011;13350;50.984;5.822;2022-12-16T00:16:59;23.25;;;14.15;;
24451;SDS011;13350;50.984;5.822;2022-12-16T00:19:26;26.55;;;15.25;;
24451;SDS011;13350;50.984;5.822;2022-12-16T00:21:53;31.83;;;16.13;;
24451;SDS011;13350;50.984;5.822;2022-12-16T00:24:20;26.90;;;15.70;;
24451;SDS011;13350;50.984;5.822;2022-12-16T00:26:47;25.83;;;14.95;;
24451;SDS011;13350;50.984;5.822;2022-12-16T00:29:16;29.60;;;15.43;;
24451;SDS011;13350;50.984;5.822;2022-12-16T00:31:44;25.23;;;15.38;;
24451;SDS011;13350;50.984;5.822;2022-12-16T00:34:12;32.70;;;16.15;;
24451;SDS011;13350;50.984;5.822;2022-12-16T00:36:39;28.35;;;14.75;;
24451;SDS011;13350;50.984;5.822;2022-12-16T00:39:07;24.30;;;15.52;;
24451;SDS011;13350;50.984;5.822;2022-12-16T00:41:35;23.33;;;13.65;;
24451;SDS011;13350;50.984;5.822;2022-12-16T00:44:03;25.27;;;13.48;;
24451;SDS011;13350;50.984;5.822;2022-12-16T00:46:31;21.92;;;13.35;;
24451;SDS011;13350;50.984;5.822;2022-12-16T00:48:59;23.48;;;14.10;;
24451;SDS011;13350;50.984;5.822;2022-12-16T00:51:26;26.80;;;14.32;;
24451;SDS011;13350;50.984;5.822;2022-12-16T00:53:53;21.50;;;14.10;;
24451;SDS011;13350;50.984;5.822;2022-12-16T00:56:20;24.77;;;14.35;;
24451;SDS011;13350;50.984;5.822;2022-12-16T00:58:47;24.92;;;14.73;;
24451;SDS011;13350;50.984;5.822;2022-12-16T01:01:14;26.10;;;14.85;;
24451;SDS011;13350;50.984;5.822;2022-12-16T01:03:43;29.40;;;15.93;;
24451;SDS011;13350;50.984;5.822;2022-12-16T01:06:10;25.67;;;15.48;;
24451;SDS011;13350;50.984;5.822;2022-12-16T01:08:40;24.90;;;14.73;;
24451;SDS011;13350;50.984;5.822;2022-12-16T01:11:12;20.40;;;13.05;;
24451;SDS011;13350;50.984;5.822;2022-12-16T01:13:41;21.40;;;13.63;;
24451;SDS011;13350;50.984;5.822;2022-12-16T01:16:08;22.95;;;13.85;;
24451;SDS011;13350;50.984;5.822;2022-12-16T01:18:35;22.10;;;14.30;;
24451;SDS011;13350;50.984;5.822;2022-12-16T01:21:05;23.25;;;12.88;;
24451;SDS011;13350;50.984;5.822;2022-12-16T01:23:33;21.90;;;14.18;;
24451;SDS011;13350;50.984;5.822;2022-12-16T01:26:00;23.95;;;14.68;;
24451;SDS011;13350;50.984;5.822;2022-12-16T01:28:28;30.20;;;13.55;;
24451;SDS011;13350;50.984;5.822;2022-12-16T01:30:55;22.42;;;14.30;;
24451;SDS011;13350;50.984;5.822;2022-12-16T01:33:26;24.48;;;14.85;;
24451;SDS011;13350;50.984;5.822;2022-12-16T01:35:57;21.42;;;13.13;;
24451;SDS011;13350;50.984;5.822;2022-12-16T01:38:27;19.75;;;11.88;;
24451;SDS011;13350;50.984;5.822;2022-12-16T01:40:54;22.33;;;12.80;;
24451;SDS011;13350;50.984;5.822;2022-12-16T01:43:26;23.15;;;13.88;;
24451;SDS011;13350;50.984;5.822;2022-12-16T01:45:55;19.45;;;12.63;;
24451;SDS011;13350;50.984;5.822;2022-12-16T01:48:30;20.92;;;13.13;;
24451;SDS011;13350;50.984;5.822;2022-12-16T01:51:01;21.75;;;13.32;;
24451;SDS011;13350;50.984;5.822;2022-12-16T01:53:34;24.17;;;15.10;;
24451;SDS011;13350;50.984;5.822;2022-12-16T01:56:04;21.90;;;14.32;;
24451;SDS011;13350;50.984;5.822;2022-12-16T01:58:32;21.83;;;14.13;;
24451;SDS011;13350;50.984;5.822;2022-12-16T02:01:04;21.83;;;14.45;;
24451;SDS011;13350;50.984;5.822;2022-12-16T02:03:32;22.88;;;14.68;;
24451;SDS011;13350;50.984;5.822;2022-12-16T02:06:01;24.33;;;14.65;;
24451;SDS011;13350;50.984;5.822;2022-12-16T02:08:29;21.95;;;13.63;;
24451;SDS011;13350;50.984;5.822;2022-12-16T02:11:03;21.38;;;14.13;;
24451;SDS011;13350;50.984;5.822;2022-12-16T02:14:04;21.60;;;13.98;;
24451;SDS011;13350;50.984;5.822;2022-12-16T02:16:48;20.27;;;13.15;;
24451;SDS011;13350;50.984;5.822;2022-12-16T02:19:30;25.13;;;14.20;;
24451;SDS011;13350;50.984;5.822;2022-12-16T02:22:14;22.05;;;13.55;;
24451;SDS011;13350;50.984;5.822;2022-12-16T02:25:05;20.63;;;12.38;;
24451;SDS011;13350;50.984;5.822;2022-12-16T02:27:59;23.45;;;13.75;;
24451;SDS011;13350;50.984;5.822;2022-12-16T02:35:40;21.52;;;12.05;;
24451;SDS011;13350;50.984;5.822;2022-12-16T02:38:15;18.75;;;11.35;;
24451;SDS011;13350;50.984;5.822;2022-12-16T02:40:51;20.90;;;13.30;;
24451;SDS011;13350;50.984;5.822;2022-12-16T02:43:26;20.27;;;13.27;;
24451;SDS011;13350;50.984;5.822;2022-12-16T02:46:11;23.50;;;12.20;;
24451;SDS011;13350;50.984;5.822;2022-12-16T02:48:38;22.20;;;12.82;;
24451;SDS011;13350;50.984;5.822;2022-12-16T02:51:05;21.52;;;13.18;;
24451;SDS011;13350;50.984;5.822;2022-12-16T02:53:33;19.10;;;13.23;;
24451;SDS011;13350;50.984;5.822;2022-12-16T02:56:04;24.13;;;13.75;;
24451;SDS011;13350;50.984;5.822;2022-12-16T02:58:44;18.48;;;12.30;;
24451;SDS011;13350;50.984;5.822;2022-12-16T03:01:20;20.75;;;13.43;;
24451;SDS011;13350;50.984;5.822;2022-12-16T03:03:53;20.02;;;13.77;;
24451;SDS011;13350;50.984;5.822;2022-12-16T03:06:27;18.23;;;12.45;;
24451;SDS011;13350;50.984;5.822;2022-12-16T03:08:57;19.08;;;12.88;;
24451;SDS011;13350;50.984;5.822;2022-12-16T03:11:28;22.60;;;12.45;;
24451;SDS011;13350;50.984;5.822;2022-12-16T03:13:56;22.73;;;12.73;;
24451;SDS011;13350;50.984;5.822;2022-12-16T03:16:27;21.75;;;13.48;;
24451;SDS011;13350;50.984;5.822;2022-12-16T03:18:58;21.95;;;14.02;;
24451;SDS011;13350;50.984;5.822;2022-12-16T03:21:29;21.08;;;12.55;;
24451;SDS011;13350;50.984;5.822;2022-12-16T03:24:00;20.83;;;12.63;;
24451;SDS011;13350;50.984;5.822;2022-12-16T03:26:32;19.15;;;12.70;;
24451;SDS011;13350;50.984;5.822;2022-12-16T03:29:04;21.50;;;13.65;;
24451;SDS011;13350;50.984;5.822;2022-12-16T03:31:37;21.77;;;12.93;;
24451;SDS011;13350;50.984;5.822;2022-12-16T03:34:11;23.50;;;13.82;;
24451;SDS011;13350;50.984;5.822;2022-12-16T03:36:42;21.23;;;13.70;;
24451;SDS011;13350;50.984;5.822;2022-12-16T03:39:14;23.25;;;13.43;;
24451;SDS011;13350;50.984;5.822;2022-12-16T03:41:43;20.63;;;13.48;;
24451;SDS011;13350;50.984;5.822;2022-12-16T03:44:13;22.38;;;13.05;;
24451;SDS011;13350;50.984;5.822;2022-12-16T03:46:41;21.70;;;12.95;;
24451;SDS011;13350;50.984;5.822;2022-12-16T03:49:09;22.25;;;13.55;;
24451;SDS011;13350;50.984;5.822;2022-12-16T03:51:36;19.95;;;12.60;;
24451;SDS011;13350;50.984;5.822;2022-12-16T03:54:03;23.27;;;13.13;;
24451;SDS011;13350;50.984;5.822;2022-12-16T03:56:30;20.65;;;12.50;;
24451;SDS011;13350;50.984;5.822;2022-12-16T03:58:58;20.05;;;12.82;;
24451;SDS011;13350;50.984;5.822;2022-12-16T04:01:25;19.90;;;13.35;;
24451;SDS011;13350;50.984;5.822;2022-12-16T04:03:54;21.27;;;12.88;;
24451;SDS011;13350;50.984;5.822;2022-12-16T04:06:21;21.50;;;12.18;;
24451;SDS011;13350;50.984;5.822;2022-12-16T04:08:48;20.15;;;12.50;;
24451;SDS011;13350;50.984;5.822;2022-12-16T04:11:15;21.13;;;12.02;;
24451;SDS011;13350;50.984;5.822;2022-12-16T04:13:59;18.35;;;12.15;;
24451;SDS011;13350;50.984;5.822;2022-12-16T04:19:30;22.57;;;14.57;;
24451;SDS011;13350;50.984;5.822;2022-12-16T04:22:18;22.45;;;13.48;;
24451;SDS011;13350;50.984;5.822;2022-12-16T04:25:05;22.45;;;13.68;;
24451;SDS011;13350;50.984;5.822;2022-12-16T04:27:35;21.33;;;13.23;;
24451;SDS011;13350;50.984;5.822;2022-12-16T04:30:03;23.08;;;14.13;;
24451;SDS011;13350;50.984;5.822;2022-12-16T04:32:49;19.83;;;13.30;;
24451;SDS011;13350;50.984;5.822;2022-12-16T04:35:37;25.65;;;14.70;;
24451;SDS011;13350;50.984;5.822;2022-12-16T04:38:22;20.08;;;11.60;;
24451;SDS011;13350;50.984;5.822;2022-12-16T04:41:07;19.45;;;10.38;;
24451;SDS011;13350;50.984;5.822;2022-12-16T04:46:35;22.50;;;11.80;;
24451;SDS011;13350;50.984;5.822;2022-12-16T04:49:20;24.83;;;11.48;;
24451;SDS011;13350;50.984;5.822;2022-12-16T04:54:50;18.63;;;11.20;;
24451;SDS011;13350;50.984;5.822;2022-12-16T04:57:35;19.73;;;11.52;;
24451;SDS011;13350;50.984;5.822;2022-12-16T05:00:20;19.92;;;12.55;;
24451;SDS011;13350;50.984;5.822;2022-12-16T05:03:04;23.90;;;11.75;;
24451;SDS011;13350;50.984;5.822;2022-12-16T05:08:34;15.18;;;8.57;;
24451;SDS011;13350;50.984;5.822;2022-12-16T05:11:19;19.77;;;11.90;;
24451;SDS011;13350;50.984;5.822;2022-12-16T05:16:47;19.23;;;11.40;;
24451;SDS011;13350;50.984;5.822;2022-12-16T05:19:32;21.58;;;12.38;;
24451;SDS011;13350;50.984;5.822;2022-12-16T05:22:16;19.30;;;12.63;;
24451;SDS011;13350;50.984;5.822;2022-12-16T05:27:49;19.00;;;12.15;;
24451;SDS011;13350;50.984;5.822;2022-12-16T05:30:34;18.55;;;11.00;;
24451;SDS011;13350;50.984;5.822;2022-12-16T05:36:03;20.15;;;11.38;;
24451;SDS011;13350;50.984;5.822;2022-12-16T05:38:47;18.48;;;11.60;;
24451;SDS011;13350;50.984;5.822;2022-12-16T05:44:18;17.35;;;10.32;;
24451;SDS011;13350;50.984;5.822;2022-12-16T05:47:02;20.77;;;12.38;;
24451;SDS011;13350;50.984;5.822;2022-12-16T05:52:31;19.92;;;10.30;;
24451;SDS011;13350;50.984;5.822;2022-12-16T05:55:18;16.27;;;10.32;;
24451;SDS011;13350;50.984;5.822;2022-12-16T05:58:04;17.67;;;10.77;;
24451;SDS011;13350;50.984;5.822;2022-12-16T06:00:48;18.23;;;10.70;;
24451;SDS011;13350;50.984;5.822;2022-12-16T06:06:17;26.25;;;11.85;;
24451;SDS011;13350;50.984;5.822;2022-12-16T06:09:02;16.80;;;11.95;;
24451;SDS011;13350;50.984;5.822;2022-12-16T06:11:46;15.13;;;10.73;;
24451;SDS011;13350;50.984;5.822;2022-12-16T06:17:17;14.77;;;9.60;;
24451;SDS011;13350;50.984;5.822;2022-12-16T06:20:01;18.40;;;10.68;;
24451;SDS011;13350;50.984;5.822;2022-12-16T06:22:49;19.25;;;10.30;;
24451;SDS011;13350;50.984;5.822;2022-12-16T06:25:34;16.05;;;10.23;;
24451;SDS011;13350;50.984;5.822;2022-12-16T06:28:18;14.85;;;10.23;;
24451;SDS011;13350;50.984;5.822;2022-12-16T06:31:04;14.35;;;10.30;;
24451;SDS011;13350;50.984;5.822;2022-12-16T06:33:49;18.23;;;10.43;;
24451;SDS011;13350;50.984;5.822;2022-12-16T06:36:33;20.02;;;11.38;;
24451;SDS011;13350;50.984;5.822;2022-12-16T06:39:18;26.08;;;11.75;;
24451;SDS011;13350;50.984;5.822;2022-12-16T06:42:02;24.63;;;13.80;;
24451;SDS011;13350;50.984;5.822;2022-12-16T06:47:32;20.20;;;11.82;;
24451;SDS011;13350;50.984;5.822;2022-12-16T06:50:17;21.65;;;13.23;;
24451;SDS011;13350;50.984;5.822;2022-12-16T06:53:02;30.70;;;14.82;;
24451;SDS011;13350;50.984;5.822;2022-12-16T06:55:47;30.10;;;14.50;;
24451;SDS011;13350;50.984;5.822;2022-12-16T06:58:31;25.02;;;15.32;;
24451;SDS011;13350;50.984;5.822;2022-12-16T07:01:16;30.77;;;15.98;;
24451;SDS011;13350;50.984;5.822;2022-12-16T07:04:02;35.53;;;15.50;;
24451;SDS011;13350;50.984;5.822;2022-12-16T07:06:46;27.98;;;14.82;;
24451;SDS011;13350;50.984;5.822;2022-12-16T07:09:36;29.42;;;15.25;;
24451;SDS011;13350;50.984;5.822;2022-12-16T07:12:21;33.17;;;16.95;;
24451;SDS011;13350;50.984;5.822;2022-12-16T07:15:05;34.85;;;16.85;;
24451;SDS011;13350;50.984;5.822;2022-12-16T07:17:51;37.00;;;17.33;;
24451;SDS011;13350;50.984;5.822;2022-12-16T07:20:36;41.83;;;18.50;;
24451;SDS011;13350;50.984;5.822;2022-12-16T07:23:20;36.75;;;17.30;;
24451;SDS011;13350;50.984;5.822;2022-12-16T07:26:05;41.15;;;20.83;;
24451;SDS011;13350;50.984;5.822;2022-12-16T07:28:50;40.78;;;17.80;;
24451;SDS011;13350;50.984;5.822;2022-12-16T07:31:34;36.50;;;17.13;;
24451;SDS011;13350;50.984;5.822;2022-12-16T07:34:19;39.40;;;18.65;;
24451;SDS011;13350;50.984;5.822;2022-12-16T07:37:01;48.90;;;19.80;;
24451;SDS011;13350;50.984;5.822;2022-12-16T07:39:45;46.75;;;19.23;;
24451;SDS011;13350;50.984;5.822;2022-12-16T07:42:30;50.08;;;20.63;;
24451;SDS011;13350;50.984;5.822;2022-12-16T07:45:15;63.65;;;22.40;;
24451;SDS011;13350;50.984;5.822;2022-12-16T07:50:43;46.20;;;19.20;;
24451;SDS011;13350;50.984;5.822;2022-12-16T07:53:29;56.30;;;20.95;;
24451;SDS011;13350;50.984;5.822;2022-12-16T07:56:14;54.85;;;21.02;;
24451;SDS011;13350;50.984;5.822;2022-12-16T07:58:58;47.53;;;19.88;;
24451;SDS011;13350;50.984;5.822;2022-12-16T08:01:43;53.78;;;20.40;;
24451;SDS011;13350;50.984;5.822;2022-12-16T08:04:27;42.75;;;19.88;;
24451;SDS011;13350;50.984;5.822;2022-12-16T08:07:11;45.90;;;20.20;;
24451;SDS011;13350;50.984;5.822;2022-12-16T08:09:57;48.55;;;21.35;;
24451;SDS011;13350;50.984;5.822;2022-12-16T08:12:42;44.90;;;18.58;;
24451;SDS011;13350;50.984;5.822;2022-12-16T08:15:26;51.40;;;18.55;;
24451;SDS011;13350;50.984;5.822;2022-12-16T08:18:11;48.80;;;18.55;;
24451;SDS011;13350;50.984;5.822;2022-12-16T08:20:55;47.83;;;18.23;;
24451;SDS011;13350;50.984;5.822;2022-12-16T08:23:40;40.97;;;17.75;;
24451;SDS011;13350;50.984;5.822;2022-12-16T08:26:26;40.45;;;17.75;;
24451;SDS011;13350;50.984;5.822;2022-12-16T08:29:10;39.58;;;18.38;;
24451;SDS011;13350;50.984;5.822;2022-12-16T08:31:54;38.17;;;17.80;;
24451;SDS011;13350;50.984;5.822;2022-12-16T08:34:39;40.97;;;18.42;;
24451;SDS011;13350;50.984;5.822;2022-12-16T08:37:23;44.28;;;19.23;;
24451;SDS011;13350;50.984;5.822;2022-12-16T08:40:08;48.90;;;22.50;;
24451;SDS011;13350;50.984;5.822;2022-12-16T08:42:56;47.38;;;20.67;;
24451;SDS011;13350;50.984;5.822;2022-12-16T08:45:40;58.10;;;20.40;;
24451;SDS011;13350;50.984;5.822;2022-12-16T08:48:25;46.67;;;21.45;;
24451;SDS011;13350;50.984;5.822;2022-12-16T08:51:10;40.67;;;20.20;;
24451;SDS011;13350;50.984;5.822;2022-12-16T08:53:55;43.67;;;18.90;;
24451;SDS011;13350;50.984;5.822;2022-12-16T08:56:48;41.15;;;18.45;;
24451;SDS011;13350;50.984;5.822;2022-12-16T09:02:18;40.90;;;16.83;;
24451;SDS011;13350;50.984;5.822;2022-12-16T09:05:03;39.67;;;17.35;;
24451;SDS011;13350;50.984;5.822;2022-12-16T09:07:48;42.50;;;18.75;;
24451;SDS011;13350;50.984;5.822;2022-12-16T09:10:32;37.45;;;18.38;;
24451;SDS011;13350;50.984;5.822;2022-12-16T09:13:17;50.50;;;19.77;;
24451;SDS011;13350;50.984;5.822;2022-12-16T09:18:47;42.13;;;18.35;;
24451;SDS011;13350;50.984;5.822;2022-12-16T09:21:32;38.80;;;17.70;;
24451;SDS011;13350;50.984;5.822;2022-12-16T09:24:17;45.40;;;19.60;;
24451;SDS011;13350;50.984;5.822;2022-12-16T09:27:01;34.05;;;17.10;;
24451;SDS011;13350;50.984;5.822;2022-12-16T09:29:46;36.05;;;18.23;;
24451;SDS011;13350;50.984;5.822;2022-12-16T09:32:32;40.95;;;17.33;;
24451;SDS011;13350;50.984;5.822;2022-12-16T09:35:16;45.60;;;18.80;;
24451;SDS011;13350;50.984;5.822;2022-12-16T09:38:01;38.83;;;17.80;;
24451;SDS011;13350;50.984;5.822;2022-12-16T09:40:45;43.13;;;17.40;;
24451;SDS011;13350;50.984;5.822;2022-12-16T09:43:35;42.22;;;18.02;;
24451;SDS011;13350;50.984;5.822;2022-12-16T09:46:29;38.53;;;16.95;;
24451;SDS011;13350;50.984;5.822;2022-12-16T09:49:29;44.25;;;17.83;;
24451;SDS011;13350;50.984;5.822;2022-12-16T09:52:25;43.15;;;17.90;;
24451;SDS011;13350;50.984;5.822;2022-12-16T09:55:16;50.20;;;19.13;;
24451;SDS011;13350;50.984;5.822;2022-12-16T09:58:06;44.88;;;17.80;;
24451;SDS011;13350;50.984;5.822;2022-12-16T10:00:53;51.67;;;18.45;;
24451;SDS011;13350;50.984;5.822;2022-12-16T10:03:38;34.15;;;17.10;;
24451;SDS011;13350;50.984;5.822;2022-12-16T10:06:28;48.95;;;19.50;;
24451;SDS011;13350;50.984;5.822;2022-12-16T10:09:19;41.90;;;19.27;;
24451;SDS011;13350;50.984;5.822;2022-12-16T10:12:14;47.17;;;20.33;;
24451;SDS011;13350;50.984;5.822;2022-12-16T10:15:09;48.70;;;20.23;;
24451;SDS011;13350;50.984;5.822;2022-12-16T10:18:01;54.20;;;19.65;;
24451;SDS011;13350;50.984;5.822;2022-12-16T10:20:52;48.83;;;19.13;;
24451;SDS011;13350;50.984;5.822;2022-12-16T10:23:40;49.65;;;20.58;;
24451;SDS011;13350;50.984;5.822;2022-12-16T10:26:33;38.95;;;17.90;;
24451;SDS011;13350;50.984;5.822;2022-12-16T10:29:30;50.63;;;20.08;;
24451;SDS011;13350;50.984;5.822;2022-12-16T10:32:21;54.05;;;19.95;;
24451;SDS011;13350;50.984;5.822;2022-12-16T10:35:16;50.30;;;21.20;;
24451;SDS011;13350;50.984;5.822;2022-12-16T10:38:03;55.80;;;22.13;;
24451;SDS011;13350;50.984;5.822;2022-12-16T10:40:56;65.43;;;23.00;;
24451;SDS011;13350;50.984;5.822;2022-12-16T10:43:43;72.45;;;24.02;;
24451;SDS011;13350;50.984;5.822;2022-12-16T10:46:34;63.15;;;23.38;;
24451;SDS011;13350;50.984;5.822;2022-12-16T10:49:19;68.72;;;24.27;;
24451;SDS011;13350;50.984;5.822;2022-12-16T10:52:04;71.97;;;23.92;;
24451;SDS011;13350;50.984;5.822;2022-12-16T10:54:53;78.28;;;24.35;;
24451;SDS011;13350;50.984;5.822;2022-12-16T10:57:57;69.78;;;24.25;;
24451;SDS011;13350;50.984;5.822;2022-12-16T11:00:48;74.00;;;27.50;;
24451;SDS011;13350;50.984;5.822;2022-12-16T11:03:39;77.95;;;25.45;;
24451;SDS011;13350;50.984;5.822;2022-12-16T11:06:24;83.30;;;27.47;;
24451;SDS011;13350;50.984;5.822;2022-12-16T11:09:23;85.03;;;25.38;;
24451;SDS011;13350;50.984;5.822;2022-12-16T11:12:19;82.07;;;26.67;;
24451;SDS011;13350;50.984;5.822;2022-12-16T11:18:09;76.97;;;25.75;;
24451;SDS011;13350;50.984;5.822;2022-12-16T11:21:11;82.35;;;29.05;;
24451;SDS011;13350;50.984;5.822;2022-12-16T11:24:04;88.78;;;29.63;;
24451;SDS011;13350;50.984;5.822;2022-12-16T11:26:53;88.20;;;28.23;;
24451;SDS011;13350;50.984;5.822;2022-12-16T11:29:52;87.00;;;26.58;;
24451;SDS011;13350;50.984;5.822;2022-12-16T11:32:40;95.43;;;27.80;;
24451;SDS011;13350;50.984;5.822;2022-12-16T11:35:29;80.30;;;28.00;;
24451;SDS011;13350;50.984;5.822;2022-12-16T11:38:18;91.55;;;28.40;;
24451;SDS011;13350;50.984;5.822;2022-12-16T11:41:07;84.25;;;27.38;;
24451;SDS011;13350;50.984;5.822;2022-12-16T11:43:54;90.72;;;29.05;;
24451;SDS011;13350;50.984;5.822;2022-12-16T11:46:41;87.32;;;27.30;;
24451;SDS011;13350;50.984;5.822;2022-12-16T11:49:28;97.28;;;29.00;;
24451;SDS011;13350;50.984;5.822;2022-12-16T11:52:29;90.57;;;29.90;;
24451;SDS011;13350;50.984;5.822;2022-12-16T11:55:17;74.72;;;28.65;;
24451;SDS011;13350;50.984;5.822;2022-12-16T11:58:05;113.35;;;32.72;;
24451;SDS011;13350;50.984;5.822;2022-12-16T12:01:01;99.35;;;35.05;;
24451;SDS011;13350;50.984;5.822;2022-12-16T12:03:52;103.25;;;35.95;;
24451;SDS011;13350;50.984;5.822;2022-12-16T12:06:45;97.18;;;32.17;;
24451;SDS011;13350;50.984;5.822;2022-12-16T12:09:44;89.40;;;29.55;;
24451;SDS011;13350;50.984;5.822;2022-12-16T12:12:36;79.97;;;29.42;;
24451;SDS011;13350;50.984;5.822;2022-12-16T12:15:26;86.93;;;27.52;;
24451;SDS011;13350;50.984;5.822;2022-12-16T12:18:18;89.85;;;29.67;;
24451;SDS011;13350;50.984;5.822;2022-12-16T12:21:12;82.40;;;28.63;;
24451;SDS011;13350;50.984;5.822;2022-12-16T12:24:07;74.53;;;26.88;;
24451;SDS011;13350;50.984;5.822;2022-12-16T12:27:01;72.15;;;25.77;;
24451;SDS011;13350;50.984;5.822;2022-12-16T12:29:54;64.38;;;24.48;;
24451;SDS011;13350;50.984;5.822;2022-12-16T12:32:46;66.47;;;23.92;;
24451;SDS011;13350;50.984;5.822;2022-12-16T12:35:47;67.07;;;25.95;;
24451;SDS011;13350;50.984;5.822;2022-12-16T12:41:34;63.38;;;24.63;;
24451;SDS011;13350;50.984;5.822;2022-12-16T12:44:33;67.78;;;25.25;;
24451;SDS011;13350;50.984;5.822;2022-12-16T12:47:23;64.78;;;26.23;;
24451;SDS011;13350;50.984;5.822;2022-12-16T12:50:11;76.90;;;28.55;;
24451;SDS011;13350;50.984;5.822;2022-12-16T12:53:06;71.63;;;27.38;;
24451;SDS011;13350;50.984;5.822;2022-12-16T12:56:04;72.82;;;27.10;;
24451;SDS011;13350;50.984;5.822;2022-12-16T12:58:58;58.50;;;24.77;;
24451;SDS011;13350;50.984;5.822;2022-12-16T13:01:47;75.88;;;29.15;;
24451;SDS011;13350;50.984;5.822;2022-12-16T13:04:34;47.78;;;22.38;;
24451;SDS011;13350;50.984;5.822;2022-12-16T13:07:22;48.15;;;23.73;;
24451;SDS011;13350;50.984;5.822;2022-12-16T13:19:40;66.53;;;23.67;;
24451;SDS011;13350;50.984;5.822;2022-12-16T13:22:35;43.50;;;20.90;;
24451;SDS011;13350;50.984;5.822;2022-12-16T13:25:30;50.55;;;20.40;;
24451;SDS011;13350;50.984;5.822;2022-12-16T13:28:28;56.25;;;21.92;;
24451;SDS011;13350;50.984;5.822;2022-12-16T13:31:16;54.47;;;19.80;;
24451;SDS011;13350;50.984;5.822;2022-12-16T13:34:06;39.20;;;18.38;;
24451;SDS011;13350;50.984;5.822;2022-12-16T13:37:03;46.10;;;19.60;;
24451;SDS011;13350;50.984;5.822;2022-12-16T13:40:02;53.58;;;19.63;;
24451;SDS011;13350;50.984;5.822;2022-12-16T13:42:54;43.77;;;19.70;;
24451;SDS011;13350;50.984;5.822;2022-12-16T13:45:40;38.17;;;18.60;;
24451;SDS011;13350;50.984;5.822;2022-12-16T13:48:27;51.05;;;19.58;;
24451;SDS011;13350;50.984;5.822;2022-12-16T13:58:00;42.28;;;20.17;;
24451;SDS011;13350;50.984;5.822;2022-12-16T14:00:53;42.63;;;19.40;;
24451;SDS011;13350;50.984;5.822;2022-12-16T14:03:42;64.55;;;21.25;;
24451;SDS011;13350;50.984;5.822;2022-12-16T14:06:29;51.53;;;21.20;;
24451;SDS011;13350;50.984;5.822;2022-12-16T14:09:27;52.08;;;20.63;;
24451;SDS011;13350;50.984;5.822;2022-12-16T14:12:15;48.42;;;19.35;;
24451;SDS011;13350;50.984;5.822;2022-12-16T14:15:17;45.33;;;18.13;;
24451;SDS011;13350;50.984;5.822;2022-12-16T14:18:23;75.35;;;19.80;;
24451;SDS011;13350;50.984;5.822;2022-12-16T14:21:18;84.70;;;21.67;;
24451;SDS011;13350;50.984;5.822;2022-12-16T14:24:18;60.75;;;18.63;;
24451;SDS011;13350;50.984;5.822;2022-12-16T14:27:15;67.80;;;21.23;;
24451;SDS011;13350;50.984;5.822;2022-12-16T14:30:01;86.50;;;22.02;;
24451;SDS011;13350;50.984;5.822;2022-12-16T14:32:57;61.05;;;20.08;;
24451;SDS011;13350;50.984;5.822;2022-12-16T14:35:47;64.20;;;20.23;;
24451;SDS011;13350;50.984;5.822;2022-12-16T14:38:34;45.97;;;20.23;;
24451;SDS011;13350;50.984;5.822;2022-12-16T14:41:19;45.85;;;19.67;;
24451;SDS011;13350;50.984;5.822;2022-12-16T14:44:14;65.40;;;21.20;;
24451;SDS011;13350;50.984;5.822;2022-12-16T14:49:47;44.83;;;18.75;;
24451;SDS011;13350;50.984;5.822;2022-12-16T14:52:33;66.15;;;21.63;;
24451;SDS011;13350;50.984;5.822;2022-12-16T14:55:18;76.97;;;21.83;;
24451;SDS011;13350;50.984;5.822;2022-12-16T14:58:10;64.95;;;23.23;;
24451;SDS011;13350;50.984;5.822;2022-12-16T15:00:57;58.65;;;21.80;;
24451;SDS011;13350;50.984;5.822;2022-12-16T15:03:45;54.58;;;23.13;;
24451;SDS011;13350;50.984;5.822;2022-12-16T15:06:32;54.28;;;23.85;;
24451;SDS011;13350;50.984;5.822;2022-12-16T15:09:23;64.13;;;23.08;;
24451;SDS011;13350;50.984;5.822;2022-12-16T15:12:10;53.47;;;23.50;;
24451;SDS011;13350;50.984;5.822;2022-12-16T15:14:57;63.13;;;24.45;;
24451;SDS011;13350;50.984;5.822;2022-12-16T15:17:47;46.65;;;22.75;;
24451;SDS011;13350;50.984;5.822;2022-12-16T15:20:34;53.13;;;23.45;;
24451;SDS011;13350;50.984;5.822;2022-12-16T15:23:21;51.55;;;22.80;;
24451;SDS011;13350;50.984;5.822;2022-12-16T15:26:08;53.30;;;24.23;;
24451;SDS011;13350;50.984;5.822;2022-12-16T15:29:00;46.47;;;23.08;;
24451;SDS011;13350;50.984;5.822;2022-12-16T15:31:45;57.22;;;26.20;;
24451;SDS011;13350;50.984;5.822;2022-12-16T15:34:32;50.35;;;23.70;;
24451;SDS011;13350;50.984;5.822;2022-12-16T15:37:28;43.03;;;22.75;;
24451;SDS011;13350;50.984;5.822;2022-12-16T15:40:20;45.40;;;23.02;;
24451;SDS011;13350;50.984;5.822;2022-12-16T15:43:18;49.53;;;22.60;;
24451;SDS011;13350;50.984;5.822;2022-12-16T15:46:04;41.95;;;22.52;;
24451;SDS011;13350;50.984;5.822;2022-12-16T15:48:49;41.10;;;20.38;;
24451;SDS011;13350;50.984;5.822;2022-12-16T15:51:42;40.78;;;20.83;;
24451;SDS011;13350;50.984;5.822;2022-12-16T15:54:29;43.22;;;22.60;;
24451;SDS011;13350;50.984;5.822;2022-12-16T15:57:24;42.95;;;22.10;;
24451;SDS011;13350;50.984;5.822;2022-12-16T16:00:23;37.45;;;20.67;;
24451;SDS011;13350;50.984;5.822;2022-12-16T16:03:19;43.03;;;21.33;;
24451;SDS011;13350;50.984;5.822;2022-12-16T16:06:13;43.13;;;22.60;;
24451;SDS011;13350;50.984;5.822;2022-12-16T16:09:07;37.15;;;20.58;;
24451;SDS011;13350;50.984;5.822;2022-12-16T16:11:55;36.80;;;20.42;;
24451;SDS011;13350;50.984;5.822;2022-12-16T16:14:40;39.13;;;20.25;;
24451;SDS011;13350;50.984;5.822;2022-12-16T16:17:25;38.55;;;20.30;;
24451;SDS011;13350;50.984;5.822;2022-12-16T16:20:11;42.22;;;21.17;;
24451;SDS011;13350;50.984;5.822;2022-12-16T16:22:58;47.65;;;21.15;;
24451;SDS011;13350;50.984;5.822;2022-12-16T16:25:44;46.63;;;23.75;;
24451;SDS011;13350;50.984;5.822;2022-12-16T16:28:30;34.17;;;20.60;;
24451;SDS011;13350;50.984;5.822;2022-12-16T16:31:14;45.13;;;22.17;;
24451;SDS011;13350;50.984;5.822;2022-12-16T16:33:59;44.83;;;23.25;;
24451;SDS011;13350;50.984;5.822;2022-12-16T16:36:43;52.03;;;24.27;;
24451;SDS011;13350;50.984;5.822;2022-12-16T16:39:29;51.38;;;23.35;;
24451;SDS011;13350;50.984;5.822;2022-12-16T16:42:15;56.00;;;25.38;;
24451;SDS011;13350;50.984;5.822;2022-12-16T16:45:00;52.17;;;26.02;;
24451;SDS011;13350;50.984;5.822;2022-12-16T16:47:44;59.10;;;26.98;;
24451;SDS011;13350;50.984;5.822;2022-12-16T16:50:29;64.28;;;27.02;;
24451;SDS011;13350;50.984;5.822;2022-12-16T16:53:14;69.50;;;28.25;;
24451;SDS011;13350;50.984;5.822;2022-12-16T16:55:58;69.18;;;31.15;;
24451;SDS011;13350;50.984;5.822;2022-12-16T16:58:45;68.20;;;29.05;;
24451;SDS011;13350;50.984;5.822;2022-12-16T17:01:30;61.17;;;26.48;;
24451;SDS011;13350;50.984;5.822;2022-12-16T17:04:14;58.10;;;27.40;;
24451;SDS011;13350;50.984;5.822;2022-12-16T17:06:59;62.20;;;26.25;;